Terminal Aerodrome Forecast
Issued by NWS

Home | Current Version | Previous Version | Text Only | Print | Product List | Glossary Off
Versions: 1 2 3 4 5 6 7 8 9 10 11 12 13 14 15 16 17 18 19 20 21 22 23

874
FTUS43 KBIS 260533
TAFMOT
TAF
KMOT 260533Z 2606/2706 31007KT P6SM FEW050 SCT080
     FM261100 26006KT P6SM BKN070
     FM262200 19007KT P6SM BKN015
     FM270200 28005KT P6SM BKN020
     FM270300 30005KT P6SM BKN035=

USA.gov is the U.S. government's official web portal to all federal, state and local government web resources and services.